createdAt,value
2018-08-31T00:01:49.825Z,101759.53
2018-08-31T00:04:31.290Z,101758.80
2018-08-31T00:09:20.711Z,101761.61
2018-08-31T00:13:03.535Z,101758.56
2018-08-31T00:15:33.347Z,101760.64
2018-08-31T00:18:03.937Z,101757.33
2018-08-31T00:20:34.770Z,101758.86
2018-08-31T00:23:05.368Z,101753.88
2018-08-31T00:26:18.786Z,101755.69
2018-08-31T00:29:42.363Z,101754.69
2018-08-31T00:33:19.966Z,101747.38
2018-08-31T00:39:03.611Z,101747.58
2018-08-31T00:43:51.966Z,101757.18
2018-08-31T00:46:21.493Z,101756.67
2018-08-31T00:48:51.565Z,101759.22
2018-08-31T00:51:21.282Z,101757.41
2018-08-31T00:53:50.663Z,101758.01
2018-08-31T00:56:20.385Z,101754.29
2018-08-31T00:58:50.966Z,101754.00
2018-08-31T01:01:23.563Z,101754.67
2018-08-31T01:03:56.438Z,101750.08
2018-08-31T01:06:25.894Z,101750.61
2018-08-31T01:08:57.739Z,101750.25
2018-08-31T01:11:28.745Z,101749.96
2018-08-31T01:13:58.368Z,101745.80
2018-08-31T01:16:28.129Z,101745.16
2018-08-31T01:18:58.411Z,101743.11
2018-08-31T01:21:28.175Z,101741.84
2018-08-31T01:23:58.015Z,101738.66
2018-08-31T01:26:27.590Z,101738.20
2018-08-31T01:28:58.842Z,101739.16
2018-08-31T01:31:29.455Z,101739.34
2018-08-31T01:34:00.805Z,101740.75
2018-08-31T01:36:32.357Z,101736.41
2018-08-31T01:39:04.999Z,101741.50
2018-08-31T01:41:48.008Z,101742.14
2018-08-31T01:44:21.701Z,101737.88
2018-08-31T01:46:54.517Z,101731.66
2018-08-31T01:49:26.257Z,101735.80
2018-08-31T01:51:57.173Z,101737.64
2018-08-31T01:54:28.286Z,101739.48
2018-08-31T01:56:58.117Z,101743.94
2018-08-31T01:59:27.596Z,101745.43
2018-08-31T02:01:58.428Z,101747.73
2018-08-31T02:04:28.300Z,101745.18
2018-08-31T02:06:58.715Z,101745.74
2018-08-31T02:09:28.075Z,101743.97
2018-08-31T02:11:58.646Z,101745.20
2018-08-31T02:14:28.314Z,101745.91
2018-08-31T02:16:58.444Z,101746.82
2018-08-31T02:19:28.065Z,101744.11
2018-08-31T02:21:58.369Z,101745.99
2018-08-31T02:24:28.815Z,101738.99
2018-08-31T02:26:58.471Z,101742.63
2018-08-31T02:29:28.349Z,101738.36
2018-08-31T02:31:58.573Z,101736.05
2018-08-31T02:34:29.225Z,101739.84
2018-08-31T02:36:58.710Z,101735.95
2018-08-31T02:39:28.653Z,101735.11
2018-08-31T02:41:58.010Z,101733.31
2018-08-31T02:44:28.484Z,101734.35
2018-08-31T02:47:01.974Z,101735.70
2018-08-31T02:49:33.256Z,101741.33
2018-08-31T02:52:03.654Z,101730.27
2018-08-31T02:54:33.645Z,101689.98
2018-08-31T02:57:04.472Z,101739.23
2018-08-31T02:59:33.763Z,101736.09
2018-08-31T03:02:03.459Z,101732.47
2018-08-31T03:04:33.165Z,101735.16
2018-08-31T03:07:05.987Z,101697.91
2018-08-31T03:09:37.863Z,101734.06
2018-08-31T03:12:07.451Z,101734.81
2018-08-31T03:14:38.619Z,101734.02
2018-08-31T03:17:08.501Z,101740.84
2018-08-31T03:19:37.985Z,101733.62
2018-08-31T03:22:07.397Z,101729.07
2018-08-31T03:24:40.117Z,101729.07
2018-08-31T03:27:09.930Z,101728.44
2018-08-31T03:29:41.226Z,101726.69
2018-08-31T03:32:11.018Z,101732.61
2018-08-31T03:34:41.615Z,101728.93
2018-08-31T03:37:12.666Z,101730.31
2018-08-31T03:39:42.345Z,101726.95
2018-08-31T03:42:11.884Z,101724.55
2018-08-31T03:44:42.001Z,101728.58
2018-08-31T03:47:13.962Z,101730.88
2018-08-31T03:49:44.475Z,101736.99
2018-08-31T03:52:18.484Z,101731.42
2018-08-31T03:54:48.141Z,101731.34
2018-08-31T03:57:18.803Z,101728.48
2018-08-31T03:59:48.458Z,101732.55
2018-08-31T04:02:19.030Z,101723.81
2018-08-31T04:04:48.783Z,101728.53
2018-08-31T04:07:18.245Z,101733.77
2018-08-31T04:09:47.949Z,101733.27
2018-08-31T04:12:17.361Z,101738.58
2018-08-31T04:14:49.328Z,101725.98
2018-08-31T04:17:19.471Z,101726.13
2018-08-31T04:19:48.867Z,101730.77
2018-08-31T04:22:18.335Z,101730.29
2018-08-31T04:24:48.014Z,101729.37
2018-08-31T04:27:21.309Z,101726.54
2018-08-31T04:29:50.811Z,101724.06
2018-08-31T04:32:20.304Z,101726.98
2018-08-31T04:34:49.701Z,101734.80
2018-08-31T04:37:19.592Z,101734.84
2018-08-31T04:39:49.093Z,101736.79
2018-08-31T04:42:19.262Z,101739.05
2018-08-31T04:44:49.617Z,101738.80
2018-08-31T04:47:20.045Z,101745.70
2018-08-31T04:49:50.919Z,101753.19
2018-08-31T04:52:20.788Z,101750.02
2018-08-31T04:54:50.446Z,101754.27
2018-08-31T04:57:24.582Z,101751.84
2018-08-31T04:59:56.196Z,101755.97
2018-08-31T05:02:27.194Z,101754.06
2018-08-31T05:04:57.397Z,101763.00
2018-08-31T05:07:30.108Z,101754.59
2018-08-31T05:10:00.394Z,101756.95
2018-08-31T05:12:30.780Z,101756.02
2018-08-31T05:15:00.263Z,101761.73
2018-08-31T05:17:30.523Z,101763.41
2018-08-31T05:22:23.423Z,101768.09
2018-08-31T05:24:53.583Z,101760.95
2018-08-31T05:27:23.327Z,101719.72
2018-08-31T05:29:52.868Z,101762.16
2018-08-31T05:32:24.770Z,101773.39
2018-08-31T05:34:55.160Z,101761.71
2018-08-31T05:37:25.128Z,101762.86
2018-08-31T05:39:55.446Z,101765.59
2018-08-31T05:42:26.061Z,101773.73
2018-08-31T05:45:03.352Z,101772.88
2018-08-31T05:47:34.230Z,101772.03
2018-08-31T05:50:05.052Z,101770.47
2018-08-31T05:52:35.279Z,101778.67
2018-08-31T05:55:05.312Z,101778.86
2018-08-31T05:57:36.190Z,101785.00
2018-08-31T06:00:09.365Z,101784.71
2018-08-31T06:02:39.139Z,101783.78
2018-08-31T06:05:09.381Z,101781.42
2018-08-31T06:07:38.863Z,101787.56
2018-08-31T06:10:08.477Z,101790.52
2018-08-31T06:12:42.078Z,101792.94
2018-08-31T06:15:18.720Z,101795.49
2018-08-31T06:17:48.978Z,101800.84
2018-08-31T06:20:19.306Z,101797.14
2018-08-31T06:22:48.930Z,101795.13
2018-08-31T06:27:59.740Z,101798.73
2018-08-31T06:30:30.545Z,101800.02
2018-08-31T06:33:01.005Z,101797.99
2018-08-31T06:35:30.999Z,101800.69
2018-08-31T06:38:01.051Z,101808.19
2018-08-31T06:40:31.524Z,101806.94
2018-08-31T06:43:02.671Z,101806.30
2018-08-31T06:45:34.540Z,101806.65
2018-08-31T06:48:04.863Z,101808.44
2018-08-31T06:50:34.768Z,101593.55
2018-08-31T06:53:05.437Z,101803.95
2018-08-31T06:55:47.825Z,101799.75
2018-08-31T06:58:22.057Z,101801.45
2018-08-31T07:00:55.793Z,101812.50
2018-08-31T07:03:25.217Z,101806.28
2018-08-31T07:05:54.775Z,101768.38
2018-08-31T07:08:25.655Z,101810.60
2018-08-31T07:10:57.291Z,101810.43
2018-08-31T07:13:30.879Z,101814.90
2018-08-31T07:16:01.770Z,101807.86
2018-08-31T07:18:31.391Z,101811.22
2018-08-31T07:21:01.633Z,101812.63
2018-08-31T07:23:31.651Z,101815.69
2018-08-31T07:26:04.483Z,101818.45
2018-08-31T07:28:34.139Z,101820.03
2018-08-31T07:31:06.511Z,101818.70
2018-08-31T07:33:38.429Z,101823.98
2018-08-31T07:36:08.535Z,101826.89
2018-08-31T07:38:37.976Z,101832.34
2018-08-31T07:41:08.093Z,101826.95
2018-08-31T07:46:03.660Z,101833.92
2018-08-31T07:48:33.194Z,101833.80
2018-08-31T07:51:03.278Z,101839.54
2018-08-31T07:53:32.758Z,101843.11
2018-08-31T07:56:07.632Z,101838.52
2018-08-31T07:58:37.506Z,101841.23
2018-08-31T08:01:08.448Z,101838.88
2018-08-31T08:03:45.237Z,101848.16
2018-08-31T08:06:16.892Z,101850.19
2018-08-31T08:08:47.230Z,101848.52
2018-08-31T08:11:17.276Z,101847.28
2018-08-31T08:13:47.158Z,101841.15
2018-08-31T08:16:21.689Z,101845.09
2018-08-31T08:18:52.332Z,101846.36
2018-08-31T08:21:23.846Z,101850.03
2018-08-31T08:23:53.597Z,101848.25
2018-08-31T08:26:23.265Z,101855.11
2018-08-31T08:28:52.717Z,101847.97
2018-08-31T08:31:23.354Z,101770.05
2018-08-31T08:33:52.572Z,101859.54
2018-08-31T08:36:25.472Z,101856.19
2018-08-31T08:38:57.960Z,101857.71
2018-08-31T08:41:27.829Z,101858.20
2018-08-31T08:44:00.675Z,101858.99
2018-08-31T08:46:30.173Z,101861.53
2018-08-31T08:48:59.476Z,101859.23
2018-08-31T08:51:29.614Z,101863.25
2018-08-31T08:53:58.723Z,101856.86
2018-08-31T08:56:28.497Z,101858.80
2018-08-31T08:59:12.720Z,101854.02
2018-08-31T09:01:42.864Z,101851.94
2018-08-31T09:04:12.145Z,101856.26
2018-08-31T09:06:41.581Z,101849.05
2018-08-31T09:09:11.876Z,101848.31
2018-08-31T09:11:43.595Z,101854.80
2018-08-31T09:14:12.995Z,101856.95
2018-08-31T09:16:43.390Z,101857.41
2018-08-31T09:19:12.796Z,101852.78
2018-08-31T09:21:42.023Z,101847.27
2018-08-31T09:24:12.015Z,101850.48
2018-08-31T09:26:41.796Z,101854.18
2018-08-31T09:29:12.101Z,101851.53
2018-08-31T09:31:49.188Z,101851.91
2018-08-31T09:34:19.988Z,101855.80
2018-08-31T09:36:51.208Z,101849.12
2018-08-31T09:39:21.267Z,101847.05
2018-08-31T09:42:04.942Z,101846.66
2018-08-31T09:44:34.617Z,101841.48
2018-08-31T09:47:05.806Z,101839.00
2018-08-31T09:49:35.307Z,101837.97
2018-08-31T09:52:05.972Z,101833.48
2018-08-31T09:54:36.488Z,101839.98
2018-08-31T09:57:08.555Z,101837.54
2018-08-31T09:59:38.840Z,101830.01
2018-08-31T10:02:13.904Z,101834.16
2018-08-31T10:04:43.138Z,101830.16
2018-08-31T10:07:15.806Z,101830.80
2018-08-31T10:09:46.120Z,101831.42
2018-08-31T10:12:22.839Z,101831.84
2018-08-31T10:15:07.390Z,101817.97
2018-08-31T10:17:40.809Z,101817.94
2018-08-31T10:20:13.296Z,101814.77
2018-08-31T10:22:44.016Z,101822.19
2018-08-31T10:25:15.210Z,101815.30
2018-08-31T10:27:45.522Z,101812.67
2018-08-31T10:30:22.263Z,101822.80
2018-08-31T10:32:58.491Z,101818.55
2018-08-31T10:35:28.283Z,101819.61
2018-08-31T10:38:08.242Z,101818.18
2018-08-31T10:40:38.365Z,101820.03
2018-08-31T10:43:09.477Z,101821.53
2018-08-31T10:45:39.050Z,101815.94
2018-08-31T10:48:08.523Z,101818.08
2018-08-31T10:50:38.900Z,101812.78
2018-08-31T10:55:39.929Z,101815.28
2018-08-31T10:58:11.962Z,101815.69
2018-08-31T11:00:42.784Z,101813.06
2018-08-31T11:03:14.067Z,101817.65
2018-08-31T11:05:49.389Z,101809.64
2018-08-31T11:08:20.047Z,101810.48
2018-08-31T11:10:50.718Z,101811.63
2018-08-31T11:13:20.628Z,101664.95
2018-08-31T11:15:52.876Z,101808.30
2018-08-31T11:18:24.198Z,101805.48
2018-08-31T11:26:28.606Z,101811.60
2018-08-31T11:28:58.748Z,101803.59
2018-08-31T11:31:30.729Z,101802.98
2018-08-31T11:34:21.645Z,101802.55
2018-08-31T11:36:51.940Z,101808.86
2018-08-31T11:39:32.763Z,101806.27
2018-08-31T11:42:04.148Z,101809.50
2018-08-31T11:44:34.745Z,101811.63
2018-08-31T11:47:06.053Z,101798.50
2018-08-31T11:49:35.343Z,101799.02
2018-08-31T11:52:09.466Z,101798.52
2018-08-31T11:54:51.036Z,101798.55
2018-08-31T11:57:21.572Z,101801.42
2018-08-31T11:59:51.337Z,101798.73
2018-08-31T12:02:23.438Z,101798.08
2018-08-31T12:04:53.064Z,101793.91
2018-08-31T12:07:24.999Z,101789.08
2018-08-31T12:09:55.959Z,101785.45
2018-08-31T12:12:27.264Z,101793.27
2018-08-31T12:15:14.652Z,101791.23
2018-08-31T12:17:47.456Z,101785.41
2018-08-31T12:20:17.689Z,101785.41
2018-08-31T12:22:47.207Z,101782.52
2018-08-31T12:25:17.157Z,101779.75
2018-08-31T12:27:58.302Z,101778.17
2018-08-31T12:30:32.743Z,101789.02
2018-08-31T12:33:03.381Z,101791.08
2018-08-31T12:35:33.251Z,101785.32
2018-08-31T12:38:03.371Z,101783.52
2018-08-31T12:40:34.535Z,101781.25
2018-08-31T12:43:12.797Z,101790.23
2018-08-31T12:45:48.449Z,101790.09
2018-08-31T12:48:24.773Z,101791.72
2018-08-31T12:50:57.623Z,101788.88
2018-08-31T12:53:28.977Z,101786.17
2018-08-31T12:55:59.722Z,101779.80
2018-08-31T12:58:33.320Z,101781.41
2018-08-31T13:01:06.617Z,101788.39
2018-08-31T13:03:43.540Z,101778.42
2018-08-31T13:06:15.290Z,101771.69
2018-08-31T13:08:46.851Z,101777.14
2018-08-31T13:11:17.822Z,101773.26
2018-08-31T13:13:50.749Z,101773.28
2018-08-31T13:16:21.270Z,101771.12
2018-08-31T13:18:56.916Z,101769.84
2018-08-31T13:21:38.270Z,101768.52
2018-08-31T13:24:08.853Z,101756.77
2018-08-31T13:26:42.051Z,101756.95
2018-08-31T13:29:12.448Z,101755.58
2018-08-31T13:31:42.551Z,101753.77
2018-08-31T13:34:15.241Z,101748.86
2018-08-31T13:36:46.986Z,101750.48
2018-08-31T13:39:26.366Z,101754.23
2018-08-31T13:41:55.892Z,101751.80
2018-08-31T13:44:26.227Z,101759.00
2018-08-31T13:46:58.746Z,101757.41
2018-08-31T13:49:28.046Z,101755.41
2018-08-31T13:52:03.016Z,101755.53
2018-08-31T13:54:32.393Z,101757.48
2018-08-31T13:57:02.873Z,101762.66
2018-08-31T13:59:33.533Z,101757.11
2018-08-31T14:04:33.185Z,101759.20
2018-08-31T14:07:03.656Z,101757.31
2018-08-31T14:09:34.226Z,101757.75
2018-08-31T14:12:06.589Z,101763.59
2018-08-31T14:14:39.501Z,101759.80
2018-08-31T14:17:09.800Z,101764.61
2018-08-31T14:19:40.471Z,101769.82
2018-08-31T14:22:11.335Z,101768.78
2018-08-31T14:24:40.806Z,101775.77
2018-08-31T14:27:10.307Z,101769.83
2018-08-31T14:29:40.595Z,101761.25
2018-08-31T14:32:12.721Z,101766.59
2018-08-31T14:34:49.483Z,101771.56
2018-08-31T14:37:22.625Z,101763.19
2018-08-31T14:39:52.163Z,101767.77
2018-08-31T14:42:23.235Z,101769.80
2018-08-31T14:44:54.637Z,101467.80
2018-08-31T14:47:24.526Z,101768.72
2018-08-31T14:49:59.472Z,101765.21
2018-08-31T14:52:31.469Z,101763.60
2018-08-31T14:55:04.104Z,101765.31
2018-08-31T14:57:34.228Z,101756.91
2018-08-31T15:00:09.192Z,101756.74
2018-08-31T15:02:39.589Z,101753.31
2018-08-31T15:05:11.251Z,101757.68
2018-08-31T15:07:42.328Z,101753.20
2018-08-31T15:10:16.359Z,101758.16
2018-08-31T15:12:47.965Z,101758.78
2018-08-31T15:15:18.904Z,101757.31
2018-08-31T15:17:52.489Z,101750.77
2018-08-31T15:20:26.273Z,101755.66
2018-08-31T15:22:56.470Z,101752.70
2018-08-31T15:28:22.297Z,101754.98
2018-08-31T15:30:56.827Z,101751.58
2018-08-31T15:33:32.397Z,101749.97
2018-08-31T15:36:07.189Z,101744.91
2018-08-31T15:38:37.339Z,101741.10
2018-08-31T15:41:17.222Z,101750.22
2018-08-31T15:43:46.457Z,101748.89
2018-08-31T15:48:53.099Z,101751.98
2018-08-31T15:51:23.914Z,101750.12
2018-08-31T15:53:55.961Z,101749.42
2018-08-31T15:56:28.069Z,101754.39
2018-08-31T16:00:07.147Z,101751.09
2018-08-31T16:02:51.371Z,101752.45
2018-08-31T16:05:20.700Z,101752.45
2018-08-31T16:07:52.369Z,101754.38
2018-08-31T16:10:22.785Z,101756.31
2018-08-31T16:12:55.013Z,101756.19
2018-08-31T16:15:26.429Z,101760.72
2018-08-31T16:17:58.833Z,101757.82
2018-08-31T16:20:32.456Z,101758.00
2018-08-31T16:23:02.410Z,101756.55
2018-08-31T16:25:33.455Z,101749.73
2018-08-31T16:28:09.869Z,101755.09
2018-08-31T16:30:45.563Z,101746.97
2018-08-31T16:33:16.838Z,101748.17
2018-08-31T16:35:48.112Z,101751.13
2018-08-31T16:38:28.412Z,101750.55
2018-08-31T16:41:00.951Z,101748.63
2018-08-31T16:43:32.398Z,101754.59
2018-08-31T16:46:14.255Z,101752.34
2018-08-31T16:48:45.368Z,101754.08
2018-08-31T16:53:57.107Z,101753.56
2018-08-31T16:56:27.123Z,101755.29
2018-08-31T16:58:59.495Z,101762.37
2018-08-31T17:04:21.681Z,101728.78
2018-08-31T17:06:55.721Z,101752.44
2018-08-31T17:09:24.980Z,101759.41
2018-08-31T17:11:58.959Z,101766.34
2018-08-31T17:14:28.502Z,101767.09
2018-08-31T17:16:58.052Z,101769.67
2018-08-31T17:19:31.317Z,101761.70
2018-08-31T17:22:02.660Z,101769.77
2018-08-31T17:24:34.302Z,101767.03
2018-08-31T17:32:57.485Z,101771.49
2018-08-31T17:35:34.117Z,101773.23
2018-08-31T17:38:11.442Z,101777.20
2018-08-31T17:40:43.697Z,101771.95
2018-08-31T17:43:15.273Z,101777.59
2018-08-31T17:45:46.346Z,101775.80
2018-08-31T17:48:19.263Z,101788.84
2018-08-31T17:50:49.788Z,101791.58
2018-08-31T17:53:26.461Z,101790.69
2018-08-31T17:56:02.675Z,101785.64
2018-08-31T17:58:36.214Z,101792.42
2018-08-31T18:01:13.077Z,101791.11
2018-08-31T18:03:48.304Z,101793.02
2018-08-31T18:06:26.107Z,101799.82
2018-08-31T18:08:58.462Z,101799.73
2018-08-31T18:11:30.579Z,101802.06
2018-08-31T18:14:05.709Z,101809.23
2018-08-31T18:16:39.815Z,101809.64
2018-08-31T18:19:09.524Z,101807.39
2018-08-31T18:21:47.219Z,101815.22
2018-08-31T18:24:19.082Z,101820.72
2018-08-31T18:26:56.793Z,101822.56
2018-08-31T18:29:32.397Z,101820.92
2018-08-31T18:32:07.531Z,101820.91
2018-08-31T18:34:45.053Z,101821.66
2018-08-31T18:37:17.532Z,101822.48
2018-08-31T18:40:03.825Z,101830.63
2018-08-31T18:45:28.178Z,101827.60
2018-08-31T18:48:00.541Z,101830.35
2018-08-31T18:50:38.741Z,101833.89
2018-08-31T18:53:17.794Z,101842.67
2018-08-31T18:55:58.111Z,101847.05
2018-08-31T18:58:31.512Z,101855.36
2018-08-31T19:01:04.698Z,101852.66
2018-08-31T19:03:44.706Z,101807.73
2018-08-31T19:06:20.431Z,101855.20
2018-08-31T19:08:50.894Z,101860.13
2018-08-31T19:11:21.851Z,101861.98
2018-08-31T19:14:00.231Z,101863.66
2018-08-31T19:16:33.932Z,101870.59
2018-08-31T19:19:07.180Z,101871.31
2018-08-31T19:21:37.112Z,101877.05
2018-08-31T19:24:09.124Z,101886.34
2018-08-31T19:26:40.477Z,101886.01
2018-08-31T19:29:25.276Z,101883.31
2018-08-31T19:31:56.419Z,101893.30
2018-08-31T19:34:37.664Z,101887.20
2018-08-31T19:37:15.727Z,101892.42
2018-08-31T19:39:49.237Z,101894.97
2018-08-31T19:42:23.109Z,101891.76
2018-08-31T19:44:56.561Z,101891.61
2018-08-31T19:47:31.894Z,101891.27
2018-08-31T19:50:38.692Z,101889.91
2018-08-31T19:53:10.043Z,101894.98
2018-08-31T19:55:45.541Z,101892.11
2018-08-31T19:58:17.482Z,101903.09
2018-08-31T20:00:49.423Z,101898.35
2018-08-31T20:03:38.317Z,101894.45
2018-08-31T20:06:12.210Z,101899.36
2018-08-31T20:08:47.213Z,101899.67
2018-08-31T20:11:19.573Z,101894.23
2018-08-31T20:13:50.561Z,101902.46
2018-08-31T20:16:24.308Z,101908.71
2018-08-31T20:18:58.351Z,101909.59
2018-08-31T20:21:28.608Z,101911.45
2018-08-31T20:23:59.869Z,101918.71
2018-08-31T20:26:34.203Z,101915.66
2018-08-31T20:29:07.471Z,101920.37
2018-08-31T20:31:44.596Z,101921.00
2018-08-31T20:34:17.270Z,101915.39
2018-08-31T20:36:48.067Z,101923.27
2018-08-31T20:39:18.362Z,101923.08
2018-08-31T20:41:51.214Z,101921.23
2018-08-31T20:44:21.382Z,101923.08
2018-08-31T20:46:54.214Z,101930.03
2018-08-31T20:49:32.934Z,101931.38
2018-08-31T20:52:06.464Z,101932.88
2018-08-31T20:54:46.511Z,101935.95
2018-08-31T20:57:23.880Z,101935.58
2018-08-31T21:00:14.336Z,101939.42
2018-08-31T21:03:11.925Z,101942.52
2018-08-31T21:05:43.626Z,101945.05
2018-08-31T21:08:13.919Z,101941.84
2018-08-31T21:10:51.372Z,101943.05
2018-08-31T21:13:21.844Z,101942.53
2018-08-31T21:15:54.247Z,101947.29
2018-08-31T21:18:28.695Z,101938.50
2018-08-31T21:20:58.392Z,101944.25
2018-08-31T21:23:30.929Z,101950.70
2018-08-31T21:26:04.491Z,101945.97
2018-08-31T21:28:36.521Z,101950.86
2018-08-31T21:31:09.261Z,101951.20
2018-08-31T21:33:38.718Z,101954.20
2018-08-31T21:36:15.666Z,101952.48
2018-08-31T21:38:46.142Z,101954.12
2018-08-31T21:41:18.913Z,101952.26
2018-08-31T21:43:50.729Z,101963.89
2018-08-31T21:46:23.677Z,101960.14
2018-08-31T21:48:54.877Z,101959.53
2018-08-31T21:51:26.657Z,101966.86
2018-08-31T21:53:58.749Z,101961.49
2018-08-31T21:56:29.168Z,101957.30
2018-08-31T21:58:59.611Z,101953.75
2018-08-31T22:01:35.978Z,101955.09
2018-08-31T22:04:05.660Z,101955.74
2018-08-31T22:06:35.751Z,101962.84
2018-08-31T22:09:09.678Z,101957.44
2018-08-31T22:11:45.857Z,101955.30
2018-08-31T22:14:27.424Z,101958.14
2018-08-31T22:17:00.806Z,101953.61
2018-08-31T22:19:35.466Z,101961.36
2018-08-31T22:22:06.642Z,101957.77
2018-08-31T22:24:38.466Z,101964.81
2018-08-31T22:27:12.050Z,101966.83
2018-08-31T22:29:44.263Z,101966.09
2018-08-31T22:32:14.376Z,101972.27
2018-08-31T22:34:45.574Z,101967.72
2018-08-31T22:37:18.666Z,101963.66
2018-08-31T22:39:50.350Z,101962.66
2018-08-31T22:42:20.352Z,101961.58
2018-08-31T22:44:53.083Z,101964.42
2018-08-31T22:47:30.306Z,101960.25
2018-08-31T22:50:00.458Z,101964.35
2018-08-31T22:52:29.800Z,101965.13
2018-08-31T22:55:00.008Z,101962.88
2018-08-31T22:57:29.725Z,101957.42
2018-08-31T22:59:59.285Z,101961.27
2018-08-31T23:02:30.203Z,101961.29
2018-08-31T23:05:01.094Z,101961.58
2018-08-31T23:07:37.546Z,101952.09
2018-08-31T23:10:08.490Z,101956.72
2018-08-31T23:12:42.150Z,101959.80
2018-08-31T23:15:16.637Z,101959.70
2018-08-31T23:17:46.605Z,101963.56
2018-08-31T23:20:16.515Z,101960.38
2018-08-31T23:22:49.465Z,101970.66
2018-08-31T23:25:25.206Z,101958.17
2018-08-31T23:27:55.351Z,101962.91
2018-08-31T23:30:25.646Z,101962.52
2018-08-31T23:32:55.112Z,101957.80
2018-08-31T23:35:25.797Z,101964.67
2018-08-31T23:37:55.292Z,101964.96
2018-08-31T23:40:25.799Z,101960.85
2018-08-31T23:42:55.322Z,101963.55
2018-08-31T23:45:24.993Z,101965.20
2018-08-31T23:47:54.788Z,101964.81
2018-08-31T23:50:24.226Z,101968.28
2018-08-31T23:52:54.614Z,101961.12
2018-08-31T23:55:27.308Z,101958.03
2018-08-31T23:57:58.391Z,101958.48
